sensor_id;sensor_type;location;lat;lon;timestamp;pressure;altitude;pressure_sealevel;temperature;humidity
32081;BME280;18593;51.426;7.030;2023-06-10T00:02:10;100421.06;;;22.09;46.85
32081;BME280;18593;51.426;7.030;2023-06-10T00:04:38;100413.50;;;22.06;46.80
32081;BME280;18593;51.426;7.030;2023-06-10T00:07:05;100412.16;;;22.03;46.67
32081;BME280;18593;51.426;7.030;2023-06-10T00:09:34;100417.66;;;21.98;46.96
32081;BME280;18593;51.426;7.030;2023-06-10T00:12:03;100420.94;;;21.95;47.12
32081;BME280;18593;51.426;7.030;2023-06-10T00:14:31;100418.28;;;21.90;47.13
32081;BME280;18593;51.426;7.030;2023-06-10T00:16:59;100425.66;;;21.84;47.47
32081;BME280;18593;51.426;7.030;2023-06-10T00:19:27;100421.63;;;21.82;47.38
32081;BME280;18593;51.426;7.030;2023-06-10T00:21:58;100422.19;;;21.79;47.25
32081;BME280;18593;51.426;7.030;2023-06-10T00:24:25;100412.19;;;21.74;47.57
32081;BME280;18593;51.426;7.030;2023-06-10T00:26:52;100405.44;;;21.72;47.96
32081;BME280;18593;51.426;7.030;2023-06-10T00:29:19;100413.63;;;21.67;48.29
32081;BME280;18593;51.426;7.030;2023-06-10T00:31:47;100410.69;;;21.63;48.33
32081;BME280;18593;51.426;7.030;2023-06-10T00:34:15;100406.13;;;21.58;48.26
32081;BME280;18593;51.426;7.030;2023-06-10T00:36:42;100413.19;;;21.54;48.16
32081;BME280;18593;51.426;7.030;2023-06-10T00:39:10;100410.25;;;21.51;48.43
32081;BME280;18593;51.426;7.030;2023-06-10T00:41:37;100411.09;;;21.46;48.40
32081;BME280;18593;51.426;7.030;2023-06-10T00:44:05;100414.41;;;21.43;48.37
32081;BME280;18593;51.426;7.030;2023-06-10T00:46:32;100420.09;;;21.42;48.72
32081;BME280;18593;51.426;7.030;2023-06-10T00:49:00;100418.78;;;21.39;48.57
32081;BME280;18593;51.426;7.030;2023-06-10T00:51:28;100418.81;;;21.34;49.15
32081;BME280;18593;51.426;7.030;2023-06-10T00:53:55;100413.94;;;21.31;49.47
32081;BME280;18593;51.426;7.030;2023-06-10T00:56:23;100418.81;;;21.29;49.31
32081;BME280;18593;51.426;7.030;2023-06-10T00:58:51;100416.66;;;21.26;49.12
32081;BME280;18593;51.426;7.030;2023-06-10T01:01:18;100410.72;;;21.24;49.22
32081;BME280;18593;51.426;7.030;2023-06-10T01:03:46;100421.59;;;21.24;49.33
32081;BME280;18593;51.426;7.030;2023-06-10T01:06:26;100415.34;;;21.23;48.96
32081;BME280;18593;51.426;7.030;2023-06-10T01:09:11;100415.63;;;21.22;48.99
32081;BME280;18593;51.426;7.030;2023-06-10T01:11:47;100420.22;;;21.21;48.98
32081;BME280;18593;51.426;7.030;2023-06-10T01:14:19;100420.78;;;21.23;48.47
32081;BME280;18593;51.426;7.030;2023-06-10T01:16:46;100426.72;;;21.25;48.68
32081;BME280;18593;51.426;7.030;2023-06-10T01:19:14;100423.72;;;21.27;48.08
32081;BME280;18593;51.426;7.030;2023-06-10T01:21:45;100425.59;;;21.31;48.33
32081;BME280;18593;51.426;7.030;2023-06-10T01:24:14;100427.22;;;21.32;48.33
32081;BME280;18593;51.426;7.030;2023-06-10T01:26:45;100431.56;;;21.33;48.67
32081;BME280;18593;51.426;7.030;2023-06-10T01:29:25;100427.50;;;21.31;49.03
32081;BME280;18593;51.426;7.030;2023-06-10T01:32:08;100429.69;;;21.29;49.17
32081;BME280;18593;51.426;7.030;2023-06-10T01:34:40;100424.50;;;21.27;49.25
32081;BME280;18593;51.426;7.030;2023-06-10T01:37:12;100420.47;;;21.25;49.28
32081;BME280;18593;51.426;7.030;2023-06-10T01:39:41;100424.00;;;21.25;49.15
32081;BME280;18593;51.426;7.030;2023-06-10T01:42:10;100419.97;;;21.23;49.28
32081;BME280;18593;51.426;7.030;2023-06-10T01:44:39;100425.66;;;21.21;49.31
32081;BME280;18593;51.426;7.030;2023-06-10T01:47:08;100416.47;;;21.17;49.77
32081;BME280;18593;51.426;7.030;2023-06-10T01:49:35;100427.88;;;21.14;49.70
32081;BME280;18593;51.426;7.030;2023-06-10T01:52:03;100427.63;;;21.11;49.70
32081;BME280;18593;51.426;7.030;2023-06-10T01:54:34;100416.53;;;21.07;49.71
32081;BME280;18593;51.426;7.030;2023-06-10T01:57:04;100432.59;;;21.03;50.08
32081;BME280;18593;51.426;7.030;2023-06-10T01:59:50;100433.13;;;21.00;50.20
32081;BME280;18593;51.426;7.030;2023-06-10T02:02:22;100430.16;;;20.97;49.85
32081;BME280;18593;51.426;7.030;2023-06-10T02:04:50;100433.16;;;20.95;50.02
32081;BME280;18593;51.426;7.030;2023-06-10T02:07:22;100438.03;;;20.93;50.08
32081;BME280;18593;51.426;7.030;2023-06-10T02:09:50;100436.44;;;20.92;50.16
32081;BME280;18593;51.426;7.030;2023-06-10T02:12:17;100436.44;;;20.92;49.97
32081;BME280;18593;51.426;7.030;2023-06-10T02:14:46;100432.91;;;20.92;50.15
32081;BME280;18593;51.426;7.030;2023-06-10T02:17:14;100435.63;;;20.92;50.13
32081;BME280;18593;51.426;7.030;2023-06-10T02:19:42;100438.63;;;20.90;50.38
32081;BME280;18593;51.426;7.030;2023-06-10T02:22:09;100435.38;;;20.88;50.51
32081;BME280;18593;51.426;7.030;2023-06-10T02:24:36;100437.56;;;20.86;50.59
32081;BME280;18593;51.426;7.030;2023-06-10T02:27:06;100440.28;;;20.86;50.46
32081;BME280;18593;51.426;7.030;2023-06-10T02:29:33;100445.19;;;20.84;50.53
32081;BME280;18593;51.426;7.030;2023-06-10T02:32:02;100444.63;;;20.82;50.58
32081;BME280;18593;51.426;7.030;2023-06-10T02:34:30;100441.41;;;20.80;50.57
32081;BME280;18593;51.426;7.030;2023-06-10T02:36:59;100435.72;;;20.76;50.91
32081;BME280;18593;51.426;7.030;2023-06-10T02:39:30;100440.63;;;20.74;51.00
32081;BME280;18593;51.426;7.030;2023-06-10T02:41:58;100441.97;;;20.72;51.19
32081;BME280;18593;51.426;7.030;2023-06-10T02:44:30;100440.34;;;20.71;50.91
32081;BME280;18593;51.426;7.030;2023-06-10T02:46:57;100440.66;;;20.69;51.00
32081;BME280;18593;51.426;7.030;2023-06-10T02:49:25;100435.50;;;20.68;50.70
32081;BME280;18593;51.426;7.030;2023-06-10T02:51:55;100444.19;;;20.65;51.02
32081;BME280;18593;51.426;7.030;2023-06-10T02:54:24;100435.81;;;20.61;51.52
32081;BME280;18593;51.426;7.030;2023-06-10T02:56:55;100438.25;;;20.57;51.47
32081;BME280;18593;51.426;7.030;2023-06-10T02:59:24;100428.25;;;20.53;51.67
32081;BME280;18593;51.426;7.030;2023-06-10T03:01:54;100441.53;;;20.49;51.65
32081;BME280;18593;51.426;7.030;2023-06-10T03:04:23;100441.81;;;20.48;51.50
32081;BME280;18593;51.426;7.030;2023-06-10T03:06:59;100439.38;;;20.46;51.54
32081;BME280;18593;51.426;7.030;2023-06-10T03:09:32;100437.75;;;20.45;51.47
32081;BME280;18593;51.426;7.030;2023-06-10T03:12:01;100430.69;;;20.44;51.93
32081;BME280;18593;51.426;7.030;2023-06-10T03:14:32;100444.22;;;20.44;51.82
32081;BME280;18593;51.426;7.030;2023-06-10T03:17:03;100443.72;;;20.42;51.78
32081;BME280;18593;51.426;7.030;2023-06-10T03:19:32;100439.38;;;20.41;51.90
32081;BME280;18593;51.426;7.030;2023-06-10T03:22:09;100441.28;;;20.41;52.18
32081;BME280;18593;51.426;7.030;2023-06-10T03:24:40;100437.78;;;20.40;52.21
32081;BME280;18593;51.426;7.030;2023-06-10T03:27:10;100436.13;;;20.39;52.05
32081;BME280;18593;51.426;7.030;2023-06-10T03:29:39;100438.03;;;20.39;52.24
32081;BME280;18593;51.426;7.030;2023-06-10T03:32:09;100448.88;;;20.39;52.26
32081;BME280;18593;51.426;7.030;2023-06-10T03:34:38;100446.72;;;20.36;52.28
32081;BME280;18593;51.426;7.030;2023-06-10T03:37:06;100447.53;;;20.36;52.41
32081;BME280;18593;51.426;7.030;2023-06-10T03:39:33;100454.03;;;20.35;52.98
32081;BME280;18593;51.426;7.030;2023-06-10T03:42:02;100449.69;;;20.34;53.08
32081;BME280;18593;51.426;7.030;2023-06-10T03:44:31;100454.59;;;20.32;53.00
32081;BME280;18593;51.426;7.030;2023-06-10T03:46:58;100454.03;;;20.30;53.01
32081;BME280;18593;51.426;7.030;2023-06-10T03:49:27;100461.34;;;20.29;52.82
32081;BME280;18593;51.426;7.030;2023-06-10T03:51:57;100458.94;;;20.28;53.28
32081;BME280;18593;51.426;7.030;2023-06-10T03:54:25;100456.22;;;20.28;52.82
32081;BME280;18593;51.426;7.030;2023-06-10T03:56:52;100465.97;;;20.29;52.84
32081;BME280;18593;51.426;7.030;2023-06-10T03:59:19;100458.66;;;20.29;53.32
32081;BME280;18593;51.426;7.030;2023-06-10T04:01:46;100466.53;;;20.31;53.19
32081;BME280;18593;51.426;7.030;2023-06-10T04:04:14;100459.44;;;20.30;53.01
32081;BME280;18593;51.426;7.030;2023-06-10T04:06:44;100456.75;;;20.30;53.02
32081;BME280;18593;51.426;7.030;2023-06-10T04:09:12;100468.94;;;20.32;53.14
32081;BME280;18593;51.426;7.030;2023-06-10T04:11:39;100468.13;;;20.32;52.97
32081;BME280;18593;51.426;7.030;2023-06-10T04:14:07;100478.69;;;20.33;53.09
32081;BME280;18593;51.426;7.030;2023-06-10T04:16:35;100476.78;;;20.34;53.09
32081;BME280;18593;51.426;7.030;2023-06-10T04:19:02;100474.06;;;20.34;53.10
32081;BME280;18593;51.426;7.030;2023-06-10T04:21:30;100469.75;;;20.33;53.15
32081;BME280;18593;51.426;7.030;2023-06-10T04:23:58;100480.28;;;20.35;53.21
32081;BME280;18593;51.426;7.030;2023-06-10T04:26:25;100482.19;;;20.39;53.31
32081;BME280;18593;51.426;7.030;2023-06-10T04:28:53;100474.88;;;20.45;53.06
32081;BME280;18593;51.426;7.030;2023-06-10T04:31:21;100473.25;;;20.49;53.70
32081;BME280;18593;51.426;7.030;2023-06-10T04:33:48;100479.19;;;20.56;53.29
32081;BME280;18593;51.426;7.030;2023-06-10T04:36:15;100473.16;;;20.64;53.04
32081;BME280;18593;51.426;7.030;2023-06-10T04:38:43;100478.84;;;20.73;52.86
32081;BME280;18593;51.426;7.030;2023-06-10T04:41:12;100475.81;;;20.85;52.67
32081;BME280;18593;51.426;7.030;2023-06-10T04:43:39;100479.25;;;20.95;52.61
32081;BME280;18593;51.426;7.030;2023-06-10T04:46:06;100484.63;;;21.05;52.89
32081;BME280;18593;51.426;7.030;2023-06-10T04:48:34;100478.34;;;21.15;52.46
32081;BME280;18593;51.426;7.030;2023-06-10T04:51:03;100476.91;;;21.28;52.17
32081;BME280;18593;51.426;7.030;2023-06-10T04:53:31;100474.66;;;21.40;52.25
32081;BME280;18593;51.426;7.030;2023-06-10T04:55:58;100483.25;;;21.52;52.56
32081;BME280;18593;51.426;7.030;2023-06-10T04:58:27;100481.25;;;21.63;51.78
32081;BME280;18593;51.426;7.030;2023-06-10T05:00:54;100481.47;;;21.72;51.13
32081;BME280;18593;51.426;7.030;2023-06-10T05:03:21;100478.13;;;21.80;50.76
32081;BME280;18593;51.426;7.030;2023-06-10T05:05:49;100480.22;;;21.88;50.53
32081;BME280;18593;51.426;7.030;2023-06-10T05:08:16;100481.22;;;21.97;50.33
32081;BME280;18593;51.426;7.030;2023-06-10T05:10:43;100477.34;;;22.03;50.51
32081;BME280;18593;51.426;7.030;2023-06-10T05:13:10;100481.63;;;22.09;50.74
32081;BME280;18593;51.426;7.030;2023-06-10T05:15:39;100479.94;;;22.19;50.29
32081;BME280;18593;51.426;7.030;2023-06-10T05:18:10;100480.13;;;22.27;49.64
32081;BME280;18593;51.426;7.030;2023-06-10T05:20:37;100484.09;;;22.35;50.13
32081;BME280;18593;51.426;7.030;2023-06-10T05:23:05;100487.28;;;22.42;49.45
32081;BME280;18593;51.426;7.030;2023-06-10T05:25:32;100478.78;;;22.49;49.71
32081;BME280;18593;51.426;7.030;2023-06-10T05:28:00;100490.91;;;22.56;49.59
32081;BME280;18593;51.426;7.030;2023-06-10T05:30:27;100487.63;;;22.59;48.90
32081;BME280;18593;51.426;7.030;2023-06-10T05:32:55;100488.31;;;22.70;49.22
32081;BME280;18593;51.426;7.030;2023-06-10T05:35:23;100489.56;;;22.78;48.81
32081;BME280;18593;51.426;7.030;2023-06-10T05:37:50;100476.41;;;22.85;48.95
32081;BME280;18593;51.426;7.030;2023-06-10T05:40:17;100479.91;;;22.91;47.59
32081;BME280;18593;51.426;7.030;2023-06-10T05:42:45;100485.50;;;22.99;48.19
32081;BME280;18593;51.426;7.030;2023-06-10T05:45:12;100485.13;;;23.06;48.45
32081;BME280;18593;51.426;7.030;2023-06-10T05:47:39;100480.94;;;23.13;48.23
32081;BME280;18593;51.426;7.030;2023-06-10T05:50:09;100489.53;;;23.21;47.20
32081;BME280;18593;51.426;7.030;2023-06-10T05:52:37;100487.53;;;23.26;46.99
32081;BME280;18593;51.426;7.030;2023-06-10T05:55:07;100484.47;;;23.33;46.83
32081;BME280;18593;51.426;7.030;2023-06-10T05:57:34;100487.59;;;23.40;46.52
32081;BME280;18593;51.426;7.030;2023-06-10T06:00:02;100489.94;;;23.47;47.09
32081;BME280;18593;51.426;7.030;2023-06-10T06:02:38;100489.28;;;23.55;46.04
32081;BME280;18593;51.426;7.030;2023-06-10T06:05:07;100481.53;;;23.62;46.70
32081;BME280;18593;51.426;7.030;2023-06-10T06:07:35;100492.56;;;23.71;45.62
32081;BME280;18593;51.426;7.030;2023-06-10T06:10:03;100484.31;;;23.76;45.90
32081;BME280;18593;51.426;7.030;2023-06-10T06:12:30;100490.19;;;23.83;46.18
32081;BME280;18593;51.426;7.030;2023-06-10T06:14:57;100486.78;;;23.91;45.98
32081;BME280;18593;51.426;7.030;2023-06-10T06:17:24;100489.63;;;24.00;45.80
32081;BME280;18593;51.426;7.030;2023-06-10T06:19:55;100482.69;;;24.07;45.89
32081;BME280;18593;51.426;7.030;2023-06-10T06:22:23;100485.78;;;24.14;45.38
32081;BME280;18593;51.426;7.030;2023-06-10T06:24:51;100479.16;;;24.21;45.31
32081;BME280;18593;51.426;7.030;2023-06-10T06:27:18;100480.34;;;24.28;45.17
32081;BME280;18593;51.426;7.030;2023-06-10T06:29:45;100479.69;;;24.36;45.21
32081;BME280;18593;51.426;7.030;2023-06-10T06:32:12;100484.72;;;24.43;44.82
32081;BME280;18593;51.426;7.030;2023-06-10T06:34:40;100487.88;;;24.50;43.67
32081;BME280;18593;51.426;7.030;2023-06-10T06:37:07;100482.81;;;24.57;43.61
32081;BME280;18593;51.426;7.030;2023-06-10T06:39:38;100485.94;;;24.64;43.46
32081;BME280;18593;51.426;7.030;2023-06-10T06:42:06;100482.00;;;24.71;41.69
32081;BME280;18593;51.426;7.030;2023-06-10T06:44:51;100497.72;;;24.74;41.09
32081;BME280;18593;51.426;7.030;2023-06-10T06:47:18;100496.81;;;24.78;40.71
32081;BME280;18593;51.426;7.030;2023-06-10T06:49:45;100498.13;;;24.81;39.74
32081;BME280;18593;51.426;7.030;2023-06-10T06:52:13;100496.22;;;24.81;39.14
32081;BME280;18593;51.426;7.030;2023-06-10T06:54:42;100491.56;;;24.82;39.71
32081;BME280;18593;51.426;7.030;2023-06-10T06:57:09;100487.13;;;24.86;40.34
32081;BME280;18593;51.426;7.030;2023-06-10T06:59:36;100495.69;;;24.93;39.79
32081;BME280;18593;51.426;7.030;2023-06-10T07:02:04;100497.31;;;24.94;39.73
32081;BME280;18593;51.426;7.030;2023-06-10T07:04:31;100498.91;;;24.95;38.82
32081;BME280;18593;51.426;7.030;2023-06-10T07:06:59;100498.81;;;25.00;41.05
32081;BME280;18593;51.426;7.030;2023-06-10T07:09:26;100499.22;;;25.07;41.56
32081;BME280;18593;51.426;7.030;2023-06-10T07:11:55;100493.63;;;25.12;41.16
32081;BME280;18593;51.426;7.030;2023-06-10T07:14:22;100497.88;;;25.19;41.69
32081;BME280;18593;51.426;7.030;2023-06-10T07:16:49;100503.72;;;25.26;40.18
32081;BME280;18593;51.426;7.030;2023-06-10T07:19:17;100499.56;;;25.28;39.25
32081;BME280;18593;51.426;7.030;2023-06-10T07:21:44;100501.97;;;25.30;39.54
32081;BME280;18593;51.426;7.030;2023-06-10T07:24:11;100497.22;;;25.35;39.81
32081;BME280;18593;51.426;7.030;2023-06-10T07:26:38;100502.06;;;25.38;39.78
32081;BME280;18593;51.426;7.030;2023-06-10T07:29:07;100500.94;;;25.39;39.68
32081;BME280;18593;51.426;7.030;2023-06-10T07:31:34;100497.28;;;25.44;39.58
32081;BME280;18593;51.426;7.030;2023-06-10T07:34:01;100497.75;;;25.46;39.54
32081;BME280;18593;51.426;7.030;2023-06-10T07:36:29;100505.03;;;25.51;38.38
32081;BME280;18593;51.426;7.030;2023-06-10T07:38:56;100503.63;;;25.53;38.08
32081;BME280;18593;51.426;7.030;2023-06-10T07:41:23;100487.22;;;25.53;37.93
32081;BME280;18593;51.426;7.030;2023-06-10T07:43:53;100500.88;;;25.53;38.57
32081;BME280;18593;51.426;7.030;2023-06-10T07:46:23;100498.56;;;25.47;37.59
32081;BME280;18593;51.426;7.030;2023-06-10T07:48:53;100490.38;;;25.47;38.49
32081;BME280;18593;51.426;7.030;2023-06-10T07:51:21;100485.09;;;25.50;38.55
32081;BME280;18593;51.426;7.030;2023-06-10T07:53:48;100493.16;;;25.55;38.51
32081;BME280;18593;51.426;7.030;2023-06-10T07:56:16;100487.56;;;25.60;38.28
32081;BME280;18593;51.426;7.030;2023-06-10T07:58:43;100497.91;;;25.63;38.20
32081;BME280;18593;51.426;7.030;2023-06-10T08:01:10;100493.03;;;25.60;37.56
32081;BME280;18593;51.426;7.030;2023-06-10T08:03:39;100492.91;;;25.65;38.01
32081;BME280;18593;51.426;7.030;2023-06-10T08:06:06;100496.31;;;25.71;38.70
32081;BME280;18593;51.426;7.030;2023-06-10T08:08:33;100488.81;;;25.77;37.12
32081;BME280;18593;51.426;7.030;2023-06-10T08:11:06;100504.78;;;25.83;37.71
32081;BME280;18593;51.426;7.030;2023-06-10T08:13:33;100499.53;;;25.87;37.07
32081;BME280;18593;51.426;7.030;2023-06-10T08:16:00;100494.72;;;25.92;36.39
32081;BME280;18593;51.426;7.030;2023-06-10T08:18:27;100495.53;;;25.93;36.57
32081;BME280;18593;51.426;7.030;2023-06-10T08:20:56;100497.94;;;25.94;37.88
32081;BME280;18593;51.426;7.030;2023-06-10T08:23:23;100500.25;;;26.01;37.15
32081;BME280;18593;51.426;7.030;2023-06-10T08:25:51;100507.19;;;26.07;37.46
32081;BME280;18593;51.426;7.030;2023-06-10T08:28:18;100497.38;;;26.15;36.71
32081;BME280;18593;51.426;7.030;2023-06-10T08:30:46;100515.09;;;26.17;36.69
32081;BME280;18593;51.426;7.030;2023-06-10T08:33:13;100509.50;;;26.23;36.18
32081;BME280;18593;51.426;7.030;2023-06-10T08:35:40;100507.56;;;26.23;36.36
32081;BME280;18593;51.426;7.030;2023-06-10T08:38:09;100504.38;;;26.30;36.43
32081;BME280;18593;51.426;7.030;2023-06-10T08:40:36;100507.09;;;26.30;36.39
32081;BME280;18593;51.426;7.030;2023-06-10T08:43:07;100510.34;;;26.32;35.81
32081;BME280;18593;51.426;7.030;2023-06-10T08:45:36;100513.56;;;26.34;36.00
32081;BME280;18593;51.426;7.030;2023-06-10T08:48:05;100505.34;;;26.34;35.67
32081;BME280;18593;51.426;7.030;2023-06-10T08:50:36;100499.69;;;26.30;35.77
32081;BME280;18593;51.426;7.030;2023-06-10T08:53:06;100508.09;;;26.34;36.66
32081;BME280;18593;51.426;7.030;2023-06-10T08:55:37;100506.34;;;26.38;36.39
32081;BME280;18593;51.426;7.030;2023-06-10T08:58:05;100496.53;;;26.37;36.43
32081;BME280;18593;51.426;7.030;2023-06-10T09:00:32;100496.03;;;26.35;36.51
32081;BME280;18593;51.426;7.030;2023-06-10T09:03:01;100499.25;;;26.37;36.81
32081;BME280;18593;51.426;7.030;2023-06-10T09:05:30;100493.34;;;26.43;37.73
32081;BME280;18593;51.426;7.030;2023-06-10T09:08:00;100498.53;;;26.54;38.78
32081;BME280;18593;51.426;7.030;2023-06-10T09:10:28;100500.97;;;26.55;36.29
32081;BME280;18593;51.426;7.030;2023-06-10T09:12:57;100502.88;;;26.55;36.47
32081;BME280;18593;51.426;7.030;2023-06-10T09:15:25;100495.78;;;26.54;36.71
32081;BME280;18593;51.426;7.030;2023-06-10T09:17:52;100499.50;;;26.58;35.89
32081;BME280;18593;51.426;7.030;2023-06-10T09:20:19;100492.44;;;26.57;36.37
32081;BME280;18593;51.426;7.030;2023-06-10T09:22:46;100490.03;;;26.55;36.21
32081;BME280;18593;51.426;7.030;2023-06-10T09:25:14;100494.19;;;26.53;36.37
32081;BME280;18593;51.426;7.030;2023-06-10T09:27:47;100490.19;;;26.50;36.46
32081;BME280;18593;51.426;7.030;2023-06-10T09:30:28;100493.84;;;26.46;36.79
32081;BME280;18593;51.426;7.030;2023-06-10T09:32:57;100497.41;;;26.46;36.77
32081;BME280;18593;51.426;7.030;2023-06-10T09:35:26;100489.50;;;26.44;36.71
32081;BME280;18593;51.426;7.030;2023-06-10T09:37:55;100486.94;;;26.48;37.01
32081;BME280;18593;51.426;7.030;2023-06-10T09:40:23;100487.59;;;26.54;37.54
32081;BME280;18593;51.426;7.030;2023-06-10T09:42:54;100483.91;;;26.58;37.30
32081;BME280;18593;51.426;7.030;2023-06-10T09:45:23;100488.91;;;26.56;37.99
32081;BME280;18593;51.426;7.030;2023-06-10T09:47:55;100486.78;;;26.53;37.19
32081;BME280;18593;51.426;7.030;2023-06-10T09:50:22;100484.06;;;26.53;37.58
32081;BME280;18593;51.426;7.030;2023-06-10T09:52:51;100486.63;;;26.58;38.04
32081;BME280;18593;51.426;7.030;2023-06-10T09:55:18;100492.75;;;26.64;37.62
32081;BME280;18593;51.426;7.030;2023-06-10T09:57:49;100483.59;;;26.68;35.41
32081;BME280;18593;51.426;7.030;2023-06-10T10:00:22;100491.81;;;26.68;36.03
32081;BME280;18593;51.426;7.030;2023-06-10T10:02:53;100491.00;;;26.68;35.61
32081;BME280;18593;51.426;7.030;2023-06-10T10:05:22;100487.97;;;26.69;36.35
32081;BME280;18593;51.426;7.030;2023-06-10T10:07:50;100493.91;;;26.72;36.21
32081;BME280;18593;51.426;7.030;2023-06-10T10:10:20;100485.22;;;26.69;35.84
32081;BME280;18593;51.426;7.030;2023-06-10T10:12:50;100483.59;;;26.68;35.88
32081;BME280;18593;51.426;7.030;2023-06-10T10:15:18;100485.06;;;26.66;35.81
32081;BME280;18593;51.426;7.030;2023-06-10T10:17:51;100483.94;;;26.67;37.31
32081;BME280;18593;51.426;7.030;2023-06-10T10:20:31;100490.06;;;26.81;36.80
32081;BME280;18593;51.426;7.030;2023-06-10T10:23:03;100485.72;;;26.80;36.29
32081;BME280;18593;51.426;7.030;2023-06-10T10:25:38;100495.88;;;26.80;34.79
32081;BME280;18593;51.426;7.030;2023-06-10T10:28:10;100487.16;;;26.78;34.88
32081;BME280;18593;51.426;7.030;2023-06-10T10:30:40;100483.78;;;26.81;36.56
32081;BME280;18593;51.426;7.030;2023-06-10T10:33:13;100481.53;;;26.83;35.42
32081;BME280;18593;51.426;7.030;2023-06-10T10:35:43;100479.78;;;26.87;35.86
32081;BME280;18593;51.426;7.030;2023-06-10T10:38:12;100479.63;;;26.92;34.86
32081;BME280;18593;51.426;7.030;2023-06-10T10:40:41;100478.16;;;26.86;35.20
32081;BME280;18593;51.426;7.030;2023-06-10T10:43:09;100484.28;;;26.83;35.63
32081;BME280;18593;51.426;7.030;2023-06-10T10:45:37;100476.72;;;26.88;35.81
32081;BME280;18593;51.426;7.030;2023-06-10T10:48:08;100474.63;;;26.94;35.49
32081;BME280;18593;51.426;7.030;2023-06-10T10:50:38;100470.94;;;26.90;35.10
32081;BME280;18593;51.426;7.030;2023-06-10T10:53:07;100472.19;;;26.92;35.21
32081;BME280;18593;51.426;7.030;2023-06-10T10:55:35;100471.91;;;26.94;34.16
32081;BME280;18593;51.426;7.030;2023-06-10T10:58:05;100478.47;;;26.93;34.81
32081;BME280;18593;51.426;7.030;2023-06-10T11:00:34;100461.91;;;26.98;34.32
32081;BME280;18593;51.426;7.030;2023-06-10T11:03:06;100466.28;;;26.99;34.07
32081;BME280;18593;51.426;7.030;2023-06-10T11:05:39;100455.63;;;26.98;34.44
32081;BME280;18593;51.426;7.030;2023-06-10T11:08:11;100449.84;;;26.99;34.82
32081;BME280;18593;51.426;7.030;2023-06-10T11:10:40;100446.28;;;27.07;34.83
32081;BME280;18593;51.426;7.030;2023-06-10T11:13:09;100443.28;;;27.09;33.39
32081;BME280;18593;51.426;7.030;2023-06-10T11:15:43;100454.22;;;27.09;34.80
32081;BME280;18593;51.426;7.030;2023-06-10T11:18:30;100446.16;;;27.12;34.38
32081;BME280;18593;51.426;7.030;2023-06-10T11:21:02;100446.28;;;27.07;34.43
32081;BME280;18593;51.426;7.030;2023-06-10T11:23:41;100439.38;;;27.01;33.98
32081;BME280;18593;51.426;7.030;2023-06-10T11:26:14;100434.53;;;26.98;35.28
32081;BME280;18593;51.426;7.030;2023-06-10T11:29:00;100441.13;;;26.97;34.24
32081;BME280;18593;51.426;7.030;2023-06-10T11:31:29;100450.47;;;26.96;34.43
32081;BME280;18593;51.426;7.030;2023-06-10T11:33:59;100454.00;;;26.96;34.26
32081;BME280;18593;51.426;7.030;2023-06-10T11:36:28;100437.91;;;26.95;33.71
32081;BME280;18593;51.426;7.030;2023-06-10T11:38:59;100434.84;;;26.96;33.53
32081;BME280;18593;51.426;7.030;2023-06-10T11:41:26;100441.94;;;26.98;34.09
32081;BME280;18593;51.426;7.030;2023-06-10T11:43:55;100434.69;;;27.02;33.50
32081;BME280;18593;51.426;7.030;2023-06-10T11:46:23;100425.69;;;27.01;32.91
32081;BME280;18593;51.426;7.030;2023-06-10T11:48:54;100429.38;;;27.05;33.21
32081;BME280;18593;51.426;7.030;2023-06-10T11:51:22;100420.19;;;27.01;33.09
32081;BME280;18593;51.426;7.030;2023-06-10T11:53:49;100436.47;;;27.06;32.74
32081;BME280;18593;51.426;7.030;2023-06-10T11:56:21;100420.84;;;27.07;32.63
32081;BME280;18593;51.426;7.030;2023-06-10T11:58:53;100419.22;;;27.06;32.97
32081;BME280;18593;51.426;7.030;2023-06-10T12:01:21;100423.09;;;27.05;33.55
32081;BME280;18593;51.426;7.030;2023-06-10T12:03:58;100430.69;;;27.08;33.09
32081;BME280;18593;51.426;7.030;2023-06-10T12:06:26;100419.22;;;27.06;32.18
32081;BME280;18593;51.426;7.030;2023-06-10T12:08:54;100410.69;;;27.07;33.47
32081;BME280;18593;51.426;7.030;2023-06-10T12:11:23;100422.81;;;27.15;32.83
32081;BME280;18593;51.426;7.030;2023-06-10T12:13:50;100418.47;;;27.14;32.24
32081;BME280;18593;51.426;7.030;2023-06-10T12:16:18;100415.84;;;27.17;33.62
32081;BME280;18593;51.426;7.030;2023-06-10T12:18:46;100426.81;;;27.17;33.45
32081;BME280;18593;51.426;7.030;2023-06-10T12:21:24;100421.84;;;27.19;31.94
32081;BME280;18593;51.426;7.030;2023-06-10T12:24:06;100420.06;;;27.24;32.53
32081;BME280;18593;51.426;7.030;2023-06-10T12:26:40;100410.38;;;27.26;31.93
32081;BME280;18593;51.426;7.030;2023-06-10T12:29:22;100393.31;;;27.29;32.08
32081;BME280;18593;51.426;7.030;2023-06-10T12:32:08;100413.91;;;27.35;32.87
32081;BME280;18593;51.426;7.030;2023-06-10T12:34:37;100406.66;;;27.31;31.17
32081;BME280;18593;51.426;7.030;2023-06-10T12:37:10;100403.75;;;27.27;32.45
32081;BME280;18593;51.426;7.030;2023-06-10T12:39:40;100410.53;;;27.30;32.12
32081;BME280;18593;51.426;7.030;2023-06-10T12:42:12;100399.09;;;27.28;32.37
32081;BME280;18593;51.426;7.030;2023-06-10T12:44:40;100400.72;;;27.29;32.94
32081;BME280;18593;51.426;7.030;2023-06-10T12:47:09;100386.69;;;27.30;32.36
32081;BME280;18593;51.426;7.030;2023-06-10T12:49:38;100382.47;;;27.33;32.50
32081;BME280;18593;51.426;7.030;2023-06-10T12:52:06;100389.09;;;27.40;32.91
32081;BME280;18593;51.426;7.030;2023-06-10T12:54:34;100385.38;;;27.45;32.29
32081;BME280;18593;51.426;7.030;2023-06-10T12:57:02;100394.22;;;27.42;32.01
32081;BME280;18593;51.426;7.030;2023-06-10T12:59:31;100385.22;;;27.41;32.41
32081;BME280;18593;51.426;7.030;2023-06-10T13:01:59;100380.34;;;27.47;32.95